EW1940 Weather Reports


Display with metric or nautical units.
time (UTC)temp
F
wind
direction
speed
MPH
gust
MPH
rain 1hr
in
rain 24hr
in
rain mn
in
humidity
%
barometer
mb
20200330072516 39 23 3.0 8.0 0.00 0.00 0.00 84 1035.2
20200330071516 38 0 3.0 8.0 0.00 0.00 0.00 85 1035.3
20200330070517 37 0 2.0 10.0 0.00 0.00 0.00 86 1035.4
20200330065516 37 23 1.0 4.0 0.00 0.00 0.00 86 1035.4
20200330064517 36 0.0 1.0 0.00 0.00 0.00 86 1035.5
20200330063516 36 0.0 6.0 0.00 0.00 0.00 85 1035.6
20200330062517 36 0.0 0.0 0.00 0.00 0.00 84 1035.7
20200330061517 36 0.0 3.0 0.00 0.00 0.00 84 1035.7
20200330060516 36 0.0 4.0 0.00 0.00 0.00 84 1035.7
20200330055516 36 23 1.0 7.0 0.00 0.00 0.00 83 1035.7
20200330054516 37 0 1.0 5.0 0.00 0.00 0.00 83 1035.6
20200330053516 37 0 3.0 7.0 0.00 0.00 0.00 83 1035.5
20200330052516 37 0 2.0 8.0 0.00 0.00 0.00 83 1035.5
20200330051516 37 23 3.0 8.0 0.00 0.00 0.00 83 1035.6
20200330050516 37 23 4.0 9.0 0.00 0.00 0.00 82 1035.5
20200330045516 38 23 2.0 8.0 0.00 0.00 0.00 82 1035.6
20200330044516 38 23 3.0 8.0 0.00 0.00 0.00 82 1035.6
20200330043516 37 0 2.0 9.0 0.00 0.00 0.00 82 1035.6
20200330042516 38 0 3.0 8.0 0.00 0.00 0.00 82 1035.7
20200330041517 38 23 4.0 10.0 0.00 0.00 0.00 81 1035.9
20200330040517 38 0 2.0 11.0 0.00 0.00 0.00 81 1036.0
20200330035516 37 23 4.0 10.0 0.00 0.00 0.00 81 1036.0
20200330034516 37 0 3.0 8.0 0.00 0.00 0.00 81 1036.0
20200330033516 37 0 1.0 6.0 0.00 0.00 0.00 80 1036.1
20200330032516 37 338 1.0 6.0 0.00 0.00 0.00 79 1036.3
20200330031516 37 0.0 0.0 0.00 0.00 0.00 79 1036.3
20200330030516 37 338 1.0 5.0 0.00 0.00 0.00 79 1036.4
20200330025517 37 0 1.0 8.0 0.00 0.00 0.00 78 1036.5
20200330024516 37 0 2.0 7.0 0.00 0.00 0.00 78 1036.5
20200330023516 37 0 2.0 7.0 0.00 0.00 0.00 77 1036.6
20200330022516 37 0 1.0 8.0 0.00 0.00 0.00 76 1036.6
20200330021516 36 338 3.0 7.0 0.00 0.00 0.00 76 1036.8
20200330020516 36 338 2.0 5.0 0.00 0.00 0.00 76 1037.0
20200330015516 36 315 2.0 5.0 0.00 0.00 0.00 75 1037.1
20200330014516 36 0 1.0 4.0 0.00 0.00 0.00 74 1037.3
20200330013516 36 0 1.0 3.0 0.00 0.00 0.00 73 1037.4
20200330012516 36 0 1.0 3.0 0.00 0.00 0.00 73 1037.4
20200330011516 36 0.0 2.0 0.00 0.00 0.00 72 1037.5
20200330010516 36 0.0 4.0 0.00 0.00 0.00 71 1037.5
20200330005516 36 338 1.0 3.0 0.00 0.00 0.00 70 1037.7
20200330004516 37 0.0 3.0 0.00 0.00 0.00 69 1037.8
20200330003516 37 338 1.0 3.0 0.00 0.00 0.00 68 1037.8
20200330002516 38 338 1.0 6.0 0.00 0.00 0.00 67 1037.9
20200330001516 38 0 1.0 5.0 0.00 0.00 0.00 67 1037.8
20200330000516 38 45 2.0 9.0 0.00 0.00 0.00 67 1037.7
20200329235516 38 45 5.0 13.0 0.00 0.00 0.00 66 1037.9
20200329234516 38 23 2.0 9.0 0.00 0.00 0.00 65 1037.9
20200329233516 38 23 5.0 12.0 0.00 0.00 0.00 65 1037.8
20200329232516 38 23 8.0 14.0 0.00 0.00 0.00 65 1037.9
20200329231516 38 45 6.0 12.0 0.00 0.00 0.00 66 1038.0
20200329230516 39 23 7.0 12.0 0.00 0.00 0.00 65 1038.0
20200329225515 39 45 6.0 14.0 0.00 0.00 0.00 65 1038.0
20200329224516 39 45 5.0 12.0 0.00 0.00 0.00 65 1038.2
20200329223515 39 45 7.0 16.0 0.00 0.00 0.00 64 1038.2
20200329222515 39 45 5.0 14.0 0.00 0.00 0.00 63 1038.2
20200329221515 39 45 5.0 12.0 0.00 0.00 0.00 62 1038.2
20200329220516 40 45 6.0 19.0 0.00 0.00 0.00 62 1038.3
20200329215516 40 45 7.0 17.0 0.00 0.00 0.00 61 1038.3
20200329214516 40 45 7.0 17.0 0.00 0.00 0.00 60 1038.3
20200329213516 40 23 10.0 19.0 0.00 0.00 0.00 59 1038.4
20200329212515 40 45 5.0 12.0 0.00 0.00 0.00 59 1038.3
20200329211515 40 23 9.0 20.0 0.00 0.00 0.00 58 1038.2
20200329210515 40 45 12.0 24.0 0.00 0.00 0.00 58 1038.1
20200329205515 41 23 10.0 21.0 0.00 0.00 0.00 57 1038.1
20200329204515 41 23 10.0 21.0 0.00 0.00 0.00 57 1038.0
20200329203516 41 45 10.0 25.0 0.00 0.00 0.00 57 1038.0
20200329202515 41 45 8.0 16.0 0.00 0.00 0.00 56 1037.9
20200329201515 41 45 8.0 18.0 0.00 0.00 0.00 55 1037.8
20200329200515 41 23 12.0 22.0 0.00 0.00 0.00 55 1037.7
20200329195515 41 45 6.0 16.0 0.00 0.00 0.00 54 1037.8
20200329194515 41 23 8.0 15.0 0.00 0.00 0.00 54 1037.6
20200329193515 42 23 10.0 19.0 0.00 0.00 0.00 54 1037.5
20200329192515 42 23 9.0 15.0 0.00 0.00 0.00 54 1037.5
20200329191515 42 23 8.0 19.0 0.00 0.00 0.00 54 1037.3
20200329190515 42 23 9.0 18.0 0.00 0.00 0.00 52 1037.2
20200329185515 43 23 9.0 17.0 0.00 0.00 0.00 51 1037.1
20200329184515 43 23 9.0 19.0 0.00 0.00 0.00 51 1037.2
20200329183515 43 23 11.0 20.0 0.00 0.00 0.00 49 1037.1
20200329182515 44 45 7.0 16.0 0.00 0.00 0.00 49 1037.0
20200329181515 44 45 11.0 21.0 0.00 0.00 0.00 48 1036.9
20200329180515 45 23 10.0 30.0 0.00 0.00 0.00 47 1036.7
20200329175515 45 23 11.0 27.0 0.00 0.00 0.00 47 1036.7
20200329174515 46 45 9.0 22.0 0.00 0.00 0.00 47 1036.7
20200329173515 46 23 12.0 24.0 0.00 0.00 0.00 46 1036.5
20200329172515 47 23 12.0 23.0 0.00 0.00 0.00 47 1036.6
20200329171515 48 45 11.0 27.0 0.00 0.00 0.00 48 1036.3
20200329170515 48 45 8.0 20.0 0.00 0.00 0.00 50 1036.1
20200329165517 48 23 11.0 22.0 0.00 0.00 0.00 49 1036.0
20200329164518 48 23 10.0 22.0 0.00 0.00 0.00 50 1036.0
20200329163517 48 23 8.0 19.0 0.00 0.00 0.00 53 1036.0
20200329162517 48 45 9.0 20.0 0.00 0.00 0.00 54 1036.1
20200329161517 48 23 8.0 17.0 0.00 0.00 0.00 55 1036.1
20200329160518 48 23 8.0 27.0 0.00 0.00 0.00 56 1036.1
20200329155517 49 23 8.0 19.0 0.00 0.00 0.00 57 1036.0
20200329154517 49 23 9.0 18.0 0.00 0.00 0.00 58 1036.1
20200329153517 48 23 8.0 18.0 0.00 0.00 0.00 63 1036.1
20200329152517 48 45 5.0 13.0 0.00 0.00 0.00 66 1036.1
20200329151517 47 23 7.0 14.0 0.00 0.00 0.00 72 1036.0
20200329150517 47 45 6.0 15.0 0.00 0.00 0.00 70 1036.2
20200329145517 51 45 10.0 21.0 0.00 0.00 0.00 62 1036.3
20200329144517 53 23 11.0 22.0 0.00 0.00 0.00 47 1035.7
20200329143517 52 23 8.0 29.0 0.00 0.00 0.00 48 1035.8
20200329142517 53 23 9.0 20.0 0.00 0.00 0.00 47 1035.9
20200329141516 54 23 13.0 25.0 0.00 0.00 0.00 47 1035.9
20200329140517 54 23 12.0 28.0 0.00 0.00 0.00 47 1036.0
20200329135517 54 23 12.0 25.0 0.00 0.00 0.00 48 1035.9
20200329134517 53 23 14.0 25.0 0.00 0.00 0.00 48 1036.0
20200329133517 54 23 11.0 26.0 0.00 0.00 0.00 48 1036.0
20200329132517 54 23 14.0 25.0 0.00 0.00 0.00 48 1036.0
20200329131517 54 23 12.0 29.0 0.00 0.00 0.00 49 1035.6
20200329130517 54 23 9.0 18.0 0.00 0.00 0.00 51 1035.7
20200329125517 53 23 11.0 26.0 0.00 0.00 0.00 50 1035.9
20200329124516 53 23 11.0 23.0 0.00 0.00 0.00 53 1036.0
20200329123517 54 23 17.0 32.0 0.00 0.00 0.00 49 1036.0
20200329122516 53 23 13.0 27.0 0.00 0.00 0.00 47 1035.8
20200329121517 54 23 13.0 27.0 0.00 0.00 0.00 45 1035.8
20200329120517 52 23 12.0 26.0 0.00 0.00 0.00 46 1035.7
20200329115517 52 23 13.0 34.0 0.00 0.00 0.00 48 1035.9
20200329114516 51 23 14.0 32.0 0.00 0.00 0.00 48 1036.0
20200329113517 52 23 12.0 26.0 0.00 0.00 0.00 49 1036.1
20200329112517 52 23 13.0 29.0 0.00 0.00 0.00 48 1035.8
20200329111520 51 23 10.0 19.0 0.00 0.00 0.00 50 1035.9
20200329110516 51 0 12.0 26.0 0.00 0.00 0.00 48 1035.8
20200329105516 51 23 13.0 28.0 0.00 0.00 0.00 47 1035.7
20200329104517 51 23 12.0 25.0 0.00 0.00 0.00 46 1035.5
20200329103516 51 23 13.0 25.0 0.00 0.00 0.00 46 1035.6
20200329102517 51 23 12.0 23.0 0.00 0.00 0.00 45 1035.5
20200329101516 52 23 13.0 26.0 0.00 0.00 0.00 45 1035.4
20200329100516 51 23 10.0 24.0 0.00 0.00 0.00 47 1035.2
20200329095516 50 23 12.0 21.0 0.00 0.00 0.00 46 1035.1
20200329094516 49 23 14.0 29.0 0.00 0.00 0.00 47 1035.1
20200329093516 49 23 12.0 26.0 0.00 0.00 0.00 47 1035.2
20200329092516 49 45 13.0 27.0 0.00 0.00 0.00 48 1035.1
20200329090516 47 23 10.0 24.0 0.00 0.00 0.00 52 1035.2
20200329085516 47 23 14.0 25.0 0.00 0.00 0.00 52 1035.2
20200329084518 46 23 12.0 24.0 0.00 0.00 0.00 54 1035.1
20200329083516 45 23 13.0 23.0 0.00 0.00 0.00 58 1035.1
20200329082516 45 23 11.0 21.0 0.00 0.00 0.00 60 1034.9
20200329081516 44 23 13.0 27.0 0.00 0.00 0.00 62 1034.8
20200329080522 43 0 12.0 24.0 0.00 0.00 0.00 65 1034.8
20200329075516 42 23 10.0 21.0 0.00 0.00 0.00 68 1034.6
20200329074516 42 23 11.0 23.0 0.00 0.00 0.00 70 1034.7
20200329073516 41 23 12.0 25.0 0.00 0.00 0.00 70 1034.7